Time;durP1;ratioP1;P1;durP2;ratioP2;P2;SDS_P1;SDS_P2;PMS_P1;PMS_P2;Temp;Humidity;BMP_temperature;BMP_pressure;BME280_temperature;BME280_humidity;BME280_pressure;Samples;Min_cycle;Max_cycle;Signal;HPM_P1;HPM_P2
2023/12/15 00:00:21;;;;;;;26.70;21.50;;;;;;;5.30;100.00;102662.22;5067360;28;20099;-79
2023/12/15 00:02:46;;;;;;;30.90;23.45;;;;;;;5.29;100.00;102670.97;5067327;28;20028;-79
2023/12/15 00:05:12;;;;;;;30.02;23.63;;;;;;;5.29;100.00;102670.97;5068751;28;20036;-79
2023/12/15 00:07:38;;;;;;;30.90;23.08;;;;;;;5.29;100.00;102676.19;5072417;28;20033;-79
2023/12/15 00:10:04;;;;;;;33.45;24.75;;;;;;;5.30;100.00;102672.69;5047040;28;20056;-79
2023/12/15 00:12:29;;;;;;;36.72;25.50;;;;;;;5.31;100.00;102675.25;5047690;28;20181;-79
2023/12/15 00:14:54;;;;;;;35.72;26.25;;;;;;;5.31;100.00;102690.06;5047793;28;20082;-79
2023/12/15 00:17:20;;;;;;;34.35;26.15;;;;;;;5.31;100.00;102695.28;5046427;28;20488;-79
2023/12/15 00:19:45;;;;;;;35.33;27.25;;;;;;;5.33;100.00;102696.94;5047950;28;20389;-80
2023/12/15 00:22:11;;;;;;;35.03;27.35;;;;;;;5.33;100.00;102696.09;5061478;28;20103;-79
2023/12/15 00:24:36;;;;;;;38.67;27.73;;;;;;;5.34;100.00;102700.41;5064201;28;20028;-80
2023/12/15 00:27:02;;;;;;;37.78;28.17;;;;;;;5.34;100.00;102697.81;5048581;28;20112;-79
2023/12/15 00:29:27;;;;;;;38.13;29.33;;;;;;;5.34;100.00;102697.81;5049864;28;20083;-79
2023/12/15 00:31:52;;;;;;;36.13;28.48;;;;;;;5.35;100.00;102691.69;5051063;28;20131;-79
2023/12/15 00:34:18;;;;;;;39.85;29.33;;;;;;;5.35;100.00;102686.47;5059005;28;20028;-80
2023/12/15 00:36:43;;;;;;;43.78;31.25;;;;;;;5.34;100.00;102692.59;5052619;28;20025;-79
2023/12/15 00:39:09;;;;;;;41.67;30.17;;;;;;;5.33;100.00;102686.50;5057792;28;20101;-79
2023/12/15 00:41:34;;;;;;;44.47;31.40;;;;;;;5.34;100.00;102690.84;5065009;28;20349;-79
2023/12/15 00:44:02;;;;;;;46.38;31.88;;;;;;;5.35;100.00;102691.69;5051676;28;20051;-80
2023/12/15 00:46:27;;;;;;;46.60;32.70;;;;;;;5.38;100.00;102696.84;5054581;28;20734;-79
2023/12/15 00:48:53;;;;;;;45.85;31.80;;;;;;;5.38;100.00;102691.63;5067515;28;20492;-79
2023/12/15 00:51:18;;;;;;;42.95;31.70;;;;;;;5.38;100.00;102702.06;5055641;28;20028;-79
2023/12/15 00:53:43;;;;;;;45.60;31.63;;;;;;;5.39;100.00;102697.69;5068890;28;20020;-80
2023/12/15 00:56:09;;;;;;;41.35;31.23;;;;;;;5.42;100.00;102700.25;5067032;28;20407;-78
2023/12/15 00:58:35;;;;;;;45.67;32.25;;;;;;;5.42;100.00;102702.84;5067667;28;20271;-79
2023/12/15 01:01:00;;;;;;;47.28;33.22;;;;;;;5.42;100.00;102703.72;5068327;28;20017;-79
2023/12/15 01:03:25;;;;;;;46.28;32.83;;;;;;;5.44;100.00;102719.34;5058168;28;20120;-79
2023/12/15 01:05:51;;;;;;;45.78;32.83;;;;;;;5.44;100.00;102717.59;5049469;28;20493;-79
2023/12/15 01:08:16;;;;;;;46.33;33.28;;;;;;;5.46;100.00;102726.22;5046733;28;20177;-79
2023/12/15 01:10:42;;;;;;;51.28;33.97;;;;;;;5.46;100.00;102717.53;5048868;28;20024;-79
2023/12/15 01:13:08;;;;;;;51.35;34.42;;;;;;;5.47;100.00;102721.88;5047938;28;20041;-79
2023/12/15 01:15:34;;;;;;;48.95;33.70;;;;;;;5.46;100.00;102726.22;5046834;28;20021;-79
2023/12/15 01:17:59;;;;;;;50.60;35.03;;;;;;;5.47;100.00;102727.94;5046738;28;20033;-80
2023/12/15 01:20:25;;;;;;;52.17;34.30;;;;;;;5.49;100.00;102730.53;5050591;28;21080;-80
2023/12/15 01:22:50;;;;;;;49.60;34.08;;;;;;;5.49;100.00;102731.38;5065432;28;20060;-80
2023/12/15 01:25:18;;;;;;;46.42;34.70;;;;;;;5.50;100.00;102738.31;5065634;28;20021;-80
2023/12/15 01:27:44;;;;;;;45.92;34.05;;;;;;;5.51;100.00;102734.81;5059421;28;20052;-80
2023/12/15 01:30:09;;;;;;;51.08;34.92;;;;;;;5.52;100.00;102733.94;5049612;28;20064;-80
2023/12/15 01:32:34;;;;;;;41.15;32.97;;;;;;;5.52;100.00;102736.53;5061638;28;20084;-80
2023/12/15 01:35:00;;;;;;;45.22;32.58;;;;;;;5.53;100.00;102743.47;5050090;28;20518;-80
2023/12/15 01:37:25;;;;;;;42.90;32.42;;;;;;;5.53;100.00;102748.69;5048842;28;20025;-80
2023/12/15 01:39:51;;;;;;;45.03;33.88;;;;;;;5.55;100.00;102746.91;5062987;28;20224;-79
2023/12/15 01:42:17;;;;;;;44.83;31.77;;;;;;;5.54;100.00;102747.81;5065308;28;20277;-79
2023/12/15 01:44:43;;;;;;;42.53;32.25;;;;;;;5.57;100.00;102749.47;5062821;28;20484;-79
2023/12/15 01:47:12;;;;;;;39.53;30.85;;;;;;;5.57;100.00;102750.34;5066131;28;20469;-79
2023/12/15 01:49:38;;;;;;;42.88;31.33;;;;;;;5.57;100.00;102749.47;5051896;28;20025;-79
2023/12/15 01:52:04;;;;;;;41.20;32.33;;;;;;;5.59;100.00;102753.78;5048462;28;20033;-79
2023/12/15 01:54:29;;;;;;;41.17;31.30;;;;;;;5.60;100.00;102755.53;5065461;28;20088;-79
2023/12/15 01:56:54;;;;;;;43.47;31.27;;;;;;;5.60;100.00;102760.75;5064629;28;20027;-79
2023/12/15 01:59:20;;;;;;;40.75;31.25;;;;;;;5.62;100.00;102760.72;5063098;28;20075;-79
2023/12/15 02:01:45;;;;;;;42.42;30.88;;;;;;;5.62;100.00;102763.31;5054180;28;20020;-79
2023/12/15 02:04:10;;;;;;;42.00;31.73;;;;;;;5.64;100.00;102774.59;5066352;28;20024;-79
2023/12/15 02:06:36;;;;;;;39.47;31.02;;;;;;;5.64;100.00;102772.84;5068766;28;20032;-80
2023/12/15 02:09:01;;;;;;;39.97;31.42;;;;;;;5.64;100.00;102771.97;5070292;28;20069;-80
2023/12/15 02:11:26;;;;;;;39.58;31.13;;;;;;;5.65;100.00;102771.94;5069913;28;20033;-80
2023/12/15 02:13:52;;;;;;;41.13;31.02;;;;;;;5.65;100.00;102774.56;5071391;28;20495;-79
2023/12/15 02:16:17;;;;;;;40.47;31.10;;;;;;;5.65;100.00;102785.00;5057145;28;20032;-80
2023/12/15 02:18:42;;;;;;;42.08;31.67;;;;;;;5.67;100.00;102771.91;5052921;28;20435;-79
2023/12/15 02:21:08;;;;;;;41.63;30.45;;;;;;;5.66;100.00;102773.66;5051101;28;20028;-79
2023/12/15 02:23:33;;;;;;;40.28;31.70;;;;;;;5.70;100.00;102776.19;5048881;28;20049;-79
2023/12/15 02:25:59;;;;;;;40.67;32.42;;;;;;;5.71;100.00;102783.16;5068079;28;20031;-80
2023/12/15 02:28:24;;;;;;;44.38;33.20;;;;;;;5.71;100.00;102790.97;5070912;28;20096;-80
2023/12/15 02:30:49;;;;;;;47.20;33.00;;;;;;;5.69;100.00;102796.22;5065639;28;20098;-79
2023/12/15 02:33:14;;;;;;;42.33;32.15;;;;;;;5.72;100.00;102790.09;5070174;28;20085;-79
2023/12/15 02:35:41;;;;;;;44.75;32.35;;;;;;;5.71;100.00;102799.66;5055996;28;20089;-80
2023/12/15 02:38:07;;;;;;;50.80;33.85;;;;;;;5.72;100.00;102800.53;5053021;28;20021;-80
2023/12/15 02:40:34;;;;;;;45.40;33.50;;;;;;;5.74;100.00;102812.66;5068115;28;20094;-80
2023/12/15 02:43:00;;;;;;;49.80;33.60;;;;;;;5.75;100.00;102808.28;5056903;28;20028;-79
2023/12/15 02:45:25;;;;;;;47.65;33.55;;;;;;;5.75;100.00;102797.84;5069568;28;20461;-79
2023/12/15 02:47:51;;;;;;;52.38;34.88;;;;;;;5.75;100.00;102806.53;5067959;28;20025;-79
2023/12/15 02:50:16;;;;;;;53.85;35.25;;;;;;;5.76;100.00;102796.94;5055166;28;20024;-78
2023/12/15 02:52:41;;;;;;;49.33;34.47;;;;;;;5.78;100.00;102810.84;5065051;28;20369;-78
2023/12/15 02:55:07;;;;;;;54.03;35.17;;;;;;;5.79;100.00;102812.56;5060826;28;20504;-78
2023/12/15 02:57:33;;;;;;;52.17;35.28;;;;;;;5.79;100.00;102823.00;5049782;28;20035;-80
2023/12/15 02:59:59;;;;;;;54.80;35.53;;;;;;;5.77;100.00;102823.03;5050937;28;20025;-79
2023/12/15 03:02:24;;;;;;;54.25;34.85;;;;;;;5.80;100.00;102833.41;5053670;28;20040;-79
2023/12/15 03:04:49;;;;;;;55.13;36.50;;;;;;;5.81;100.00;102836.88;5064938;28;20016;-79
2023/12/15 03:07:18;;;;;;;54.90;35.83;;;;;;;5.82;100.00;102854.28;5070177;28;20039;-78
2023/12/15 03:09:43;;;;;;;56.17;36.88;;;;;;;5.83;100.00;102846.41;5063921;28;20361;-78
2023/12/15 03:12:08;;;;;;;60.90;36.90;;;;;;;5.82;100.00;102852.53;5062720;28;20028;-78
2023/12/15 03:14:34;;;;;;;55.50;35.50;;;;;;;5.84;100.00;102855.97;5068515;28;20399;-79
2023/12/15 03:17:00;;;;;;;56.70;35.88;;;;;;;5.84;100.00;102852.47;5057815;28;20024;-79
2023/12/15 03:19:25;;;;;;;58.60;36.30;;;;;;;5.85;100.00;102849.84;5047620;28;20094;-79
2023/12/15 03:21:51;;;;;;;55.63;35.97;;;;;;;5.87;100.00;102857.63;5053267;28;20028;-79
2023/12/15 03:24:16;;;;;;;62.35;36.78;;;;;;;5.88;100.00;102859.34;5067196;28;20028;-79
2023/12/15 03:26:41;;;;;;;59.47;36.92;;;;;;;5.88;100.00;102864.59;5055804;28;20035;-79
2023/12/15 03:29:07;;;;;;;66.00;39.10;;;;;;;5.87;100.00;102868.94;5052457;28;20021;-79
2023/12/15 03:31:33;;;;;;;60.90;37.53;;;;;;;5.88;100.00;102869.81;5054407;28;20103;-79
2023/12/15 03:33:58;;;;;;;61.45;38.63;;;;;;;5.90;100.00;102873.28;5051332;28;20033;-78
2023/12/15 03:36:23;;;;;;;63.08;38.75;;;;;;;5.89;100.00;102882.88;5064455;28;20468;-78
2023/12/15 03:38:49;;;;;;;63.40;38.25;;;;;;;5.92;100.00;102884.56;5062135;28;20033;-79
2023/12/15 03:41:14;;;;;;;65.75;38.83;;;;;;;5.91;100.00;102886.31;5064361;28;20060;-78
2023/12/15 03:43:40;;;;;;;68.78;39.65;;;;;;;5.92;100.00;102893.25;5065935;28;20031;-79
2023/12/15 03:46:05;;;;;;;69.00;40.17;;;;;;;5.95;100.00;102892.31;5051224;28;20029;-79
2023/12/15 03:48:31;;;;;;;71.15;40.53;;;;;;;5.94;100.00;102901.91;5057936;28;20391;-79
2023/12/15 03:50:56;;;;;;;76.60;41.58;;;;;;;5.93;100.00;102888.88;5056159;28;20543;-78
2023/12/15 03:53:22;;;;;;;73.20;41.50;;;;;;;5.94;100.00;102885.38;5054691;28;20032;-79
2023/12/15 03:55:47;;;;;;;71.78;41.20;;;;;;;5.97;100.00;102895.75;5063415;28;20099;-79
2023/12/15 03:58:12;;;;;;;79.03;42.15;;;;;;;5.95;100.00;102893.19;5060871;28;20018;-79
2023/12/15 04:00:38;;;;;;;77.30;42.97;;;;;;;5.99;100.00;102904.41;5052481;28;20075;-78
2023/12/15 04:03:03;;;;;;;82.43;44.17;;;;;;;5.98;100.00;102903.56;5066772;28;20024;-79
2023/12/15 04:05:28;;;;;;;84.07;45.88;;;;;;;6.01;100.00;102909.66;5061214;28;20120;-78
2023/12/15 04:07:54;;;;;;;88.60;46.55;;;;;;;6.01;100.00;102913.13;5057254;28;20040;-80
2023/12/15 04:10:19;;;;;;;84.82;44.70;;;;;;;6.03;100.00;102910.47;5067980;28;20064;-80
2023/12/15 04:12:44;;;;;;;88.15;48.28;;;;;;;6.04;100.00;102912.19;5068740;28;20028;-79
2023/12/15 04:15:10;;;;;;;90.90;46.15;;;;;;;6.04;100.00;102910.44;5068608;28;20025;-79
2023/12/15 04:17:35;;;;;;;91.80;47.45;;;;;;;6.08;100.00;102919.06;5067211;28;20025;-79
2023/12/15 04:20:00;;;;;;;93.38;47.95;;;;;;;6.09;100.00;102918.16;5052732;28;20021;-79
2023/12/15 04:22:26;;;;;;;97.32;48.97;;;;;;;6.09;100.00;102915.56;5055282;28;20031;-79
2023/12/15 04:24:51;;;;;;;94.38;49.30;;;;;;;6.10;100.00;102912.91;5068952;28;20041;-79
2023/12/15 04:27:17;;;;;;;100.75;49.78;;;;;;;6.11;100.00;102919.00;5068320;28;20199;-79
2023/12/15 04:29:42;;;;;;;100.72;49.40;;;;;;;6.11;100.00;102930.31;5067466;28;20384;-79
2023/12/15 04:32:08;;;;;;;103.80;50.38;;;;;;;6.12;100.00;102932.03;5065159;28;20090;-79
2023/12/15 04:34:33;;;;;;;99.35;50.50;;;;;;;6.13;100.00;102933.75;5068039;28;20030;-79
2023/12/15 04:36:59;;;;;;;108.38;53.35;;;;;;;6.13;100.00;102935.50;5056050;28;20443;-79
2023/12/15 04:39:25;;;;;;;105.43;52.47;;;;;;;6.15;100.00;102939.78;5064247;28;20032;-79
2023/12/15 04:41:50;;;;;;;107.55;51.50;;;;;;;6.16;100.00;102944.13;5057273;28;20033;-80
2023/12/15 04:44:15;;;;;;;110.03;51.63;;;;;;;6.17;100.00;102945.84;5047037;28;20021;-79
2023/12/15 04:46:41;;;;;;;103.28;52.42;;;;;;;6.18;100.00;102937.13;5056780;28;20610;-79
2023/12/15 04:49:07;;;;;;;102.90;50.05;;;;;;;6.18;100.00;102936.25;5066862;28;20024;-79
2023/12/15 04:51:32;;;;;;;103.20;50.40;;;;;;;6.19;100.00;102944.06;5051182;28;20036;-79
2023/12/15 04:53:58;;;;;;;99.43;49.70;;;;;;;6.20;100.00;102937.09;5063289;28;20036;-79
2023/12/15 04:56:23;;;;;;;103.45;51.35;;;;;;;6.20;100.00;102950.16;5060712;28;20082;-79
2023/12/15 04:58:50;;;;;;;105.35;50.40;;;;;;;6.20;100.00;102961.47;5047247;28;20083;-78
2023/12/15 05:01:18;;;;;;;99.00;51.30;;;;;;;6.22;100.00;102969.28;5050841;28;20632;-78
2023/12/15 05:03:44;;;;;;;100.25;49.58;;;;;;;6.24;100.00;102963.13;5067349;28;20511;-78
2023/12/15 05:06:17;;;;;;;104.57;50.40;;;;;;;6.25;100.00;102958.75;5064129;28;20105;-78
2023/12/15 05:08:43;;;;;;;100.88;51.95;;;;;;;6.25;100.00;102956.13;5057612;28;20032;-78
2023/12/15 05:11:08;;;;;;;105.45;50.97;;;;;;;6.26;100.00;102961.31;5047071;28;20025;-78
2023/12/15 05:13:33;;;;;;;104.18;52.67;;;;;;;6.27;100.00;102957.81;5054603;28;20017;-78
2023/12/15 05:15:59;;;;;;;111.80;56.08;;;;;;;6.28;100.00;102964.75;5054653;28;20032;-79
2023/12/15 05:18:24;;;;;;;107.70;53.75;;;;;;;6.28;100.00;102958.69;5062819;28;20475;-78
2023/12/15 05:20:49;;;;;;;112.93;55.65;;;;;;;6.28;100.00;102959.53;5067909;28;20029;-79
2023/12/15 05:23:18;;;;;;;111.00;54.75;;;;;;;6.28;100.00;102975.22;5063964;28;20104;-78
2023/12/15 05:25:43;;;;;;;115.55;57.10;;;;;;;6.29;100.00;102976.09;5060091;28;20040;-79
2023/12/15 05:28:09;;;;;;;112.55;54.63;;;;;;;6.31;100.00;102976.03;5063240;28;20025;-79
2023/12/15 05:30:34;;;;;;;108.10;54.97;;;;;;;6.32;100.00;102983.00;5058189;28;20123;-79
2023/12/15 05:32:59;;;;;;;110.55;55.78;;;;;;;6.32;100.00;102994.31;5054294;28;20020;-79
2023/12/15 05:35:25;;;;;;;120.47;59.10;;;;;;;6.33;100.00;102982.97;5066126;28;20108;-79
2023/12/15 05:37:50;;;;;;;116.50;57.38;;;;;;;6.35;100.00;102985.53;5061428;28;20029;-79
2023/12/15 05:40:16;;;;;;;117.30;58.13;;;;;;;6.37;100.00;102997.69;5065437;28;20043;-79
2023/12/15 05:42:42;;;;;;;121.47;59.13;;;;;;;6.36;100.00;103005.56;5064141;28;20074;-79
2023/12/15 05:45:08;;;;;;;129.55;61.17;;;;;;;6.36;100.00;103008.19;5052837;28;20121;-79
2023/12/15 05:47:35;;;;;;;133.85;61.58;;;;;;;6.36;100.00;103019.50;5061370;28;20032;-79
2023/12/15 05:50:00;;;;;;;119.35;57.97;;;;;;;6.36;100.00;103026.47;5064450;28;20028;-79
2023/12/15 05:52:26;;;;;;;124.57;59.97;;;;;;;6.38;100.00;103022.06;5065380;28;20081;-80
2023/12/15 05:54:51;;;;;;;126.40;60.47;;;;;;;6.39;100.00;103027.28;5070370;28;20154;-80
2023/12/15 05:57:16;;;;;;;122.05;60.47;;;;;;;6.41;100.00;103028.13;5058523;28;20025;-80
2023/12/15 05:59:42;;;;;;;124.07;62.08;;;;;;;6.42;100.00;103026.38;5067297;28;20020;-80
2023/12/15 06:02:09;;;;;;;124.07;61.17;;;;;;;6.42;100.00;103011.53;5066853;28;20035;-80
2023/12/15 06:04:34;;;;;;;127.05;61.85;;;;;;;6.40;100.00;103008.06;5058175;28;20044;-80
2023/12/15 06:07:00;;;;;;;129.85;61.45;;;;;;;6.41;100.00;103006.34;5051938;28;20029;-80
2023/12/15 06:09:25;;;;;;;126.22;62.03;;;;;;;6.43;100.00;103004.56;5062866;28;20024;-80
2023/12/15 06:11:52;;;;;;;128.35;62.33;;;;;;;6.42;100.00;103001.09;5069721;28;21594;-80
2023/12/15 06:14:20;;;;;;;123.28;61.90;;;;;;;6.43;100.00;103000.19;5070033;28;20645;-80
2023/12/15 06:16:46;;;;;;;130.68;63.53;;;;;;;6.45;100.00;103003.63;5067951;28;20549;-80
2023/12/15 06:19:11;;;;;;;137.68;64.47;;;;;;;6.46;100.00;103009.72;5067881;28;20028;-80
2023/12/15 06:21:37;;;;;;;123.97;62.55;;;;;;;6.47;100.00;103014.06;5069787;28;20373;-80
2023/12/15 06:24:03;;;;;;;127.63;63.47;;;;;;;6.47;100.00;103021.91;5070926;28;20032;-79
2023/12/15 06:26:28;;;;;;;124.60;62.78;;;;;;;6.48;100.00;103034.06;5070288;28;20016;-80
2023/12/15 06:28:54;;;;;;;132.93;63.38;;;;;;;6.48;100.00;103024.47;5069860;28;20051;-80
2023/12/15 06:31:19;;;;;;;135.20;64.35;;;;;;;6.49;100.00;103027.94;5069359;28;20041;-80
2023/12/15 06:33:45;;;;;;;126.18;63.75;;;;;;;6.51;100.00;103039.25;5067723;28;20033;-80
2023/12/15 06:36:11;;;;;;;126.80;65.38;;;;;;;6.52;100.00;103054.03;5051197;28;20039;-80
2023/12/15 06:38:44;;;;;;;128.95;64.75;;;;;;;6.50;100.00;103047.97;5069242;28;20090;-80
2023/12/15 06:41:10;;;;;;;122.15;62.90;;;;;;;6.53;100.00;103047.91;5065987;28;20020;-80
2023/12/15 06:43:39;;;;;;;128.23;64.40;;;;;;;6.52;100.00;103051.41;5051549;28;20041;-80
2023/12/15 06:46:05;;;;;;;128.95;64.93;;;;;;;6.53;100.00;103051.38;5068837;28;20024;-80
2023/12/15 06:48:30;;;;;;;134.90;66.15;;;;;;;6.54;100.00;103052.25;5060868;28;20388;-81
2023/12/15 06:50:55;;;;;;;125.60;64.82;;;;;;;6.56;100.00;103047.84;5055038;28;20171;-80
2023/12/15 06:53:21;;;;;;;130.63;66.72;;;;;;;6.56;100.00;103047.84;5063045;28;20056;-80
2023/12/15 06:55:46;;;;;;;128.30;65.25;;;;;;;6.56;100.00;103058.31;5065938;28;20028;-80
2023/12/15 06:58:11;;;;;;;132.20;66.93;;;;;;;6.58;100.00;103064.38;5050469;28;20021;-80
2023/12/15 07:00:37;;;;;;;130.05;66.47;;;;;;;6.59;100.00;103061.72;5054055;28;20055;-80
2023/12/15 07:03:04;;;;;;;133.90;67.13;;;;;;;6.58;100.00;103072.22;5054893;28;20028;-80
2023/12/15 07:05:29;;;;;;;134.77;65.65;;;;;;;6.59;100.00;103082.63;5067184;28;20036;-80
2023/12/15 07:07:55;;;;;;;128.63;66.45;;;;;;;6.60;100.00;103081.75;5070507;28;20016;-80
2023/12/15 07:10:20;;;;;;;134.43;66.13;;;;;;;6.62;100.00;103089.56;5066948;28;20051;-80
2023/12/15 07:12:45;;;;;;;136.85;67.25;;;;;;;6.63;100.00;103090.41;5068411;28;20031;-80
2023/12/15 07:15:11;;;;;;;146.38;69.03;;;;;;;6.60;100.00;103096.56;5069411;28;20468;-80
2023/12/15 07:17:36;;;;;;;133.98;64.38;;;;;;;6.62;100.00;103099.16;5068370;28;20541;-80
2023/12/15 07:20:04;;;;;;;130.32;64.57;;;;;;;6.59;100.00;103100.94;5064963;28;20549;-80
2023/12/15 07:22:29;;;;;;;141.45;66.40;;;;;;;6.61;100.00;103103.53;5065897;28;20158;-79
2023/12/15 07:24:55;;;;;;;134.10;65.82;;;;;;;6.60;100.00;103107.03;5049961;28;20116;-80
2023/12/15 07:27:20;;;;;;;135.45;65.35;;;;;;;6.60;100.00;103105.28;5061646;28;20055;-80
2023/12/15 07:29:45;;;;;;;136.18;65.85;;;;;;;6.59;100.00;103127.09;5067502;28;20059;-80
2023/12/15 07:32:11;;;;;;;136.80;66.10;;;;;;;6.60;100.00;103133.19;5058037;28;20116;-80
2023/12/15 07:34:36;;;;;;;128.18;65.82;;;;;;;6.61;100.00;103127.06;5067742;28;20024;-80
2023/12/15 07:37:01;;;;;;;128.50;64.63;;;;;;;6.62;100.00;103118.31;5065433;28;20047;-80
2023/12/15 07:39:29;;;;;;;126.97;63.08;;;;;;;6.63;100.00;103122.66;5059636;28;20028;-79
2023/12/15 07:41:55;;;;;;;132.25;63.00;;;;;;;6.64;100.00;103134.84;5059763;28;20040;-79
2023/12/15 07:44:20;;;;;;;130.48;62.72;;;;;;;6.64;100.00;103137.47;5068277;28;20522;-79
2023/12/15 07:46:46;;;;;;;137.75;64.97;;;;;;;6.65;100.00;103136.56;5068278;28;20032;-80
2023/12/15 07:49:11;;;;;;;131.30;64.20;;;;;;;6.66;100.00;103142.66;5069051;28;20028;-80
2023/12/15 07:51:37;;;;;;;129.93;63.42;;;;;;;6.66;100.00;103133.06;5064183;28;20040;-79
2023/12/15 07:54:02;;;;;;;124.30;61.60;;;;;;;6.67;100.00;103129.56;5064628;28;20028;-78
2023/12/15 07:56:29;;;;;;;129.70;63.00;;;;;;;6.67;100.00;103140.00;5065467;28;20381;-79
2023/12/15 07:58:55;;;;;;;128.57;63.58;;;;;;;6.68;100.00;103146.09;5067387;28;20021;-79
2023/12/15 08:01:22;;;;;;;130.13;62.72;;;;;;;6.66;100.00;103148.75;5064907;28;20487;-79
2023/12/15 08:03:48;;;;;;;131.27;63.70;;;;;;;6.69;100.00;103147.81;5063925;28;20033;-79
2023/12/15 08:06:16;;;;;;;128.52;62.15;;;;;;;6.69;100.00;103147.81;5063400;28;20111;-79
2023/12/15 08:08:42;;;;;;;129.98;63.15;;;;;;;6.69;100.00;103163.53;5068583;28;20097;-79
2023/12/15 08:11:09;;;;;;;129.00;62.03;;;;;;;6.70;100.00;103160.88;5068803;28;20060;-80
2023/12/15 08:13:38;;;;;;;129.32;62.03;;;;;;;6.71;100.00;103162.59;5059003;28;20549;-80
2023/12/15 08:16:04;;;;;;;125.05;61.40;;;;;;;6.73;100.00;103171.28;5065962;28;20044;-80
2023/12/15 08:18:30;;;;;;;126.13;61.22;;;;;;;6.74;100.00;103183.47;5067414;28;20078;-80
2023/12/15 08:21:00;;;;;;;124.78;60.63;;;;;;;6.74;100.00;103178.22;5058235;28;20016;-80
2023/12/15 08:23:26;;;;;;;116.07;59.28;;;;;;;6.75;100.00;103184.31;5053432;28;20101;-80
2023/12/15 08:25:51;;;;;;;116.60;58.97;;;;;;;6.76;100.00;103192.13;5053221;28;20602;-80
2023/12/15 08:28:18;;;;;;;115.50;57.13;;;;;;;6.76;100.00;103181.66;5065807;28;20094;-78
2023/12/15 08:30:44;;;;;;;119.72;59.55;;;;;;;6.77;100.00;103193.84;5066237;28;20024;-80
2023/12/15 08:33:09;;;;;;;107.82;58.65;;;;;;;6.78;100.00;103192.09;5067787;28;20024;-80
2023/12/15 08:35:34;;;;;;;112.68;59.17;;;;;;;6.79;100.00;103199.91;5066623;28;20032;-80
2023/12/15 08:38:00;;;;;;;109.50;55.95;;;;;;;6.79;100.00;103207.78;5065636;28;20020;-80
2023/12/15 08:40:25;;;;;;;116.93;57.13;;;;;;;6.80;100.00;103213.88;5064690;28;20032;-79
2023/12/15 08:42:51;;;;;;;117.47;58.03;;;;;;;6.81;100.00;103224.34;5047663;28;20500;-80
2023/12/15 08:45:17;;;;;;;102.22;55.22;;;;;;;6.85;100.00;103233.84;5065468;28;20082;-79
2023/12/15 08:47:45;;;;;;;109.30;55.33;;;;;;;6.87;100.00;103237.28;5066313;28;20020;-79
2023/12/15 08:50:10;;;;;;;102.82;54.53;;;;;;;6.89;100.00;103239.88;5066683;28;20036;-80
2023/12/15 08:52:36;;;;;;;103.03;54.58;;;;;;;6.90;100.00;103250.31;5063586;28;20479;-79
2023/12/15 08:55:01;;;;;;;105.15;55.03;;;;;;;6.94;100.00;103264.19;5067229;28;20078;-80
2023/12/15 08:57:27;;;;;;;104.55;54.95;;;;;;;6.96;100.00;103262.41;5066827;28;20025;-80
2023/12/15 08:59:53;;;;;;;97.55;53.15;;;;;;;6.96;100.00;103251.94;5065386;28;20111;-79
2023/12/15 09:02:19;;;;;;;101.50;53.33;;;;;;;6.98;100.00;103254.53;5067183;28;20131;-80
2023/12/15 09:04:45;;;;;;;97.63;52.13;;;;;;;6.99;100.00;103256.25;5064285;28;20016;-79
2023/12/15 09:07:11;;;;;;;96.03;51.88;;;;;;;7.03;100.00;103257.91;5067333;28;20035;-78
2023/12/15 09:09:37;;;;;;;93.95;51.67;;;;;;;7.03;100.00;103263.13;5065666;28;20017;-79
2023/12/15 09:12:03;;;;;;;92.72;51.72;;;;;;;7.01;100.00;103255.31;5062938;28;20021;-79
2023/12/15 09:14:30;;;;;;;94.03;50.63;;;;;;;7.04;100.00;103254.38;5067391;28;20508;-79
2023/12/15 09:16:55;;;;;;;95.18;49.55;;;;;;;7.08;100.00;103254.28;5070350;28;20028;-78
2023/12/15 09:19:21;;;;;;;92.72;49.83;;;;;;;7.10;100.00;103260.34;5069685;28;20075;-79
2023/12/15 09:21:47;;;;;;;86.63;50.22;;;;;;;7.13;100.00;103264.66;5066077;28;20338;-79
2023/12/15 09:24:17;;;;;;;83.03;49.80;;;;;;;7.14;100.00;103279.47;5070042;28;20365;-79
2023/12/15 09:26:44;;;;;;;80.55;47.60;;;;;;;7.15;100.00;103289.06;5068754;28;20029;-79
2023/12/15 09:29:10;;;;;;;91.88;48.72;;;;;;;7.18;100.00;103284.63;5070079;28;20375;-79
2023/12/15 09:31:36;;;;;;;82.28;48.17;;;;;;;7.22;100.00;103286.31;5069535;28;20128;-79
2023/12/15 09:34:01;;;;;;;81.10;46.92;;;;;;;7.22;100.00;103295.91;5063956;28;20036;-79
2023/12/15 09:36:26;;;;;;;82.10;46.60;;;;;;;7.24;100.00;103294.13;5064179;28;20063;-80
2023/12/15 09:38:53;;;;;;;79.47;46.38;;;;;;;7.24;100.00;103301.97;5067168;28;20028;-80
2023/12/15 09:41:20;;;;;;;78.47;45.20;;;;;;;7.27;100.00;103312.41;5069613;28;20032;-80
2023/12/15 09:43:45;;;;;;;79.15;42.58;;;;;;;7.27;100.00;103322.00;5057133;28;20055;-80
2023/12/15 09:46:11;;;;;;;72.53;41.90;;;;;;;7.26;100.00;103318.53;5065950;28;20028;-80
2023/12/15 09:48:37;;;;;;;73.60;42.67;;;;;;;7.28;100.00;103326.34;5068843;28;20407;-80
2023/12/15 09:51:07;;;;;;;69.88;42.58;;;;;;;7.28;100.00;103335.06;5068891;28;20081;-80
2023/12/15 09:53:35;;;;;;;69.45;40.78;;;;;;;7.29;100.00;103339.41;5069117;28;20024;-79
2023/12/15 09:56:01;;;;;;;69.90;41.13;;;;;;;7.29;100.00;103344.66;5069528;28;20484;-79
2023/12/15 09:58:26;;;;;;;65.75;40.85;;;;;;;7.29;100.00;103351.63;5069540;28;20039;-79
2023/12/15 10:00:52;;;;;;;68.78;40.10;;;;;;;7.27;100.00;103351.66;5069366;28;20048;-79
2023/12/15 10:03:17;;;;;;;71.75;40.78;;;;;;;7.31;100.00;103349.84;5069134;28;20043;-79
2023/12/15 10:05:43;;;;;;;69.57;40.17;;;;;;;7.30;100.00;103353.38;5069036;28;20042;-80
2023/12/15 10:08:08;;;;;;;70.65;40.13;;;;;;;7.31;100.00;103360.31;5067097;28;20032;-79
2023/12/15 10:10:34;;;;;;;63.00;39.50;;;;;;;7.33;100.00;103362.03;5069359;28;20028;-79
2023/12/15 10:13:00;;;;;;;60.45;38.60;;;;;;;7.33;100.00;103375.13;5069328;28;20389;-80
2023/12/15 10:15:27;;;;;;;65.68;38.28;;;;;;;7.34;100.00;103373.34;5052163;28;20491;-80
2023/12/15 10:17:54;;;;;;;59.22;36.35;;;;;;;7.33;100.00;103382.97;5070794;28;20039;-80
2023/12/15 10:20:20;;;;;;;68.32;39.03;;;;;;;7.34;100.00;103374.22;5068472;28;20028;-80
2023/12/15 10:22:46;;;;;;;60.00;37.15;;;;;;;7.35;100.00;103375.94;5069519;28;20134;-79
2023/12/15 10:25:16;;;;;;;62.80;37.35;;;;;;;7.38;100.00;103386.34;5070229;28;20024;-80
2023/12/15 10:27:42;;;;;;;62.38;37.20;;;;;;;7.40;100.00;103389.81;5066789;28;20043;-80
2023/12/15 10:30:07;;;;;;;65.30;38.20;;;;;;;7.45;100.00;103402.81;5069495;28;20028;-80
2023/12/15 10:32:33;;;;;;;64.47;37.60;;;;;;;7.49;100.00;103404.47;5016911;28;1263034;-80
2023/12/15 10:35:00;;;;;;;62.03;37.83;;;;;;;7.50;100.00;103399.19;5068305;28;20045;-79
2023/12/15 10:37:27;;;;;;;54.95;35.28;;;;;;;7.53;100.00;103412.22;5070559;28;20024;-79
2023/12/15 10:39:54;;;;;;;57.28;35.55;;;;;;;7.57;100.00;103418.28;5069799;28;20012;-78
2023/12/15 10:42:21;;;;;;;56.45;34.08;;;;;;;7.58;100.00;103411.28;5069507;28;20455;-81
2023/12/15 10:44:47;;;;;;;60.22;34.45;;;;;;;7.59;100.00;103410.38;5069532;28;20396;-81
2023/12/15 10:47:13;;;;;;;59.33;34.22;;;;;;;7.60;100.00;103417.34;5068268;28;20028;-79
2023/12/15 10:49:42;;;;;;;58.13;33.95;;;;;;;7.61;100.00;103429.59;5067637;28;21634;-79
2023/12/15 10:52:09;;;;;;;58.42;32.97;;;;;;;7.66;100.00;103432.97;5067958;28;20662;-79
2023/12/15 10:54:37;;;;;;;54.58;33.30;;;;;;;7.68;100.00;103431.19;5068056;28;20052;-79
2023/12/15 10:57:03;;;;;;;51.65;32.22;;;;;;;7.70;100.00;103437.25;5068713;28;20021;-79
2023/12/15 10:59:28;;;;;;;51.80;31.70;;;;;;;7.72;100.00;103438.09;5069066;28;20024;-79